Terminal Aerodrome Forecast
Issued by NWS Wilmington, OH

Current Version | Previous Version | Graphics & Text | Print | Product List | Glossary On
Versions: 1 2 3 4 5 6 7 8 9 10 11 12 13 14 15 16 17 18 19 20 21 22 23 24 25 26 27 28 29 30 31 32
364
FTUS41 KILN 281443 AAB
TAFCVG
TAF AMD
KCVG 281443Z 2815/2918 05006KT P6SM VCSH SCT008 OVC015
      TEMPO 2815/2816 5SM -RA SCT015 OVC022
     FM281600 36010KT P6SM SCT025 BKN035
     FM282200 01014G24KT P6SM SKC
     FM290400 02013KT P6SM SCT250
     FM291500 03015G20KT P6SM SCT250=

USA.gov is the U.S. government's official web portal to all federal, state and local government web resources and services.